createdAt,value
2018-07-02T00:01:30.005Z,35.00
2018-07-02T00:03:58.971Z,38.80
2018-07-02T00:06:41.563Z,35.10
2018-07-02T00:09:10.636Z,36.80
2018-07-02T00:11:39.659Z,36.80
2018-07-02T00:14:08.633Z,36.30
2018-07-02T00:16:37.692Z,35.80
2018-07-02T00:19:06.708Z,35.40
2018-07-02T00:21:35.757Z,36.90
2018-07-02T00:24:04.928Z,35.80
2018-07-02T00:26:34.153Z,37.30
2018-07-02T00:29:03.189Z,36.90
2018-07-02T00:31:32.621Z,37.40
2018-07-02T00:36:30.625Z,36.90
2018-07-02T00:38:59.673Z,35.90
2018-07-02T00:41:28.732Z,38.10
2018-07-02T00:43:57.777Z,38.60
2018-07-02T00:46:26.808Z,39.00
2018-07-02T00:48:55.804Z,37.20
2018-07-02T00:51:24.850Z,39.20
2018-07-02T00:53:53.929Z,39.90
2018-07-02T00:56:23.494Z,39.40
2018-07-02T00:58:52.553Z,39.60
2018-07-02T01:01:22.221Z,40.70
2018-07-02T01:03:51.260Z,39.40
2018-07-02T01:06:20.545Z,41.00
2018-07-02T01:08:49.544Z,41.50
2018-07-02T01:11:18.822Z,41.10
2018-07-02T01:13:48.318Z,39.50
2018-07-02T01:16:17.421Z,39.30
2018-07-02T01:18:47.338Z,39.70
2018-07-02T01:21:16.436Z,41.10
2018-07-02T01:23:45.496Z,40.20
2018-07-02T01:26:15.435Z,40.60
2018-07-02T01:28:44.712Z,40.10
2018-07-02T01:31:14.065Z,40.60
2018-07-02T01:33:43.138Z,40.10
2018-07-02T01:36:12.132Z,40.00
2018-07-02T01:38:41.130Z,41.10
2018-07-02T01:41:10.155Z,40.80
2018-07-02T01:43:39.135Z,40.80
2018-07-02T01:46:08.150Z,40.30
2018-07-02T01:48:37.140Z,40.70
2018-07-02T01:51:06.188Z,41.00
2018-07-02T01:53:35.178Z,41.10
2018-07-02T01:56:04.206Z,40.50
2018-07-02T01:58:33.272Z,41.30
2018-07-02T02:01:02.272Z,40.90
2018-07-02T02:03:31.365Z,41.10
2018-07-02T02:06:00.376Z,41.20
2018-07-02T02:08:29.449Z,40.50
2018-07-02T02:10:58.506Z,41.20
2018-07-02T02:13:27.521Z,40.70
2018-07-02T02:15:56.510Z,41.20
2018-07-02T02:18:25.552Z,40.20
2018-07-02T02:20:55.145Z,40.20
2018-07-02T02:23:24.202Z,40.20
2018-07-02T02:25:53.215Z,40.10
2018-07-02T02:28:22.238Z,39.90
2018-07-02T02:30:51.251Z,39.20
2018-07-02T02:33:20.301Z,41.10
2018-07-02T02:35:49.306Z,39.80
2018-07-02T02:38:18.468Z,41.40
2018-07-02T02:40:47.445Z,40.10
2018-07-02T02:43:16.525Z,41.70
2018-07-02T02:45:45.518Z,41.30
2018-07-02T02:48:14.521Z,41.40
2018-07-02T02:50:43.571Z,41.10
2018-07-02T02:53:12.581Z,41.40
2018-07-02T02:55:41.581Z,41.30
2018-07-02T02:58:10.625Z,41.90
2018-07-02T03:00:39.621Z,41.90
2018-07-02T03:03:08.659Z,42.00
2018-07-02T03:05:38.081Z,42.20
2018-07-02T03:08:07.125Z,41.30
2018-07-02T03:10:36.123Z,42.30
2018-07-02T03:13:05.729Z,41.80
2018-07-02T03:15:34.762Z,42.90
2018-07-02T03:18:03.825Z,42.10
2018-07-02T03:20:32.870Z,42.90
2018-07-02T03:23:01.944Z,42.90
2018-07-02T03:25:30.941Z,41.50
2018-07-02T03:28:00.173Z,41.90
2018-07-02T03:30:29.202Z,41.50
2018-07-02T03:32:58.248Z,42.60
2018-07-02T03:35:27.319Z,42.90
2018-07-02T03:37:56.381Z,42.90
2018-07-02T03:40:25.372Z,43.00
2018-07-02T03:42:54.453Z,42.90
2018-07-02T03:45:23.577Z,42.30
2018-07-02T03:47:52.839Z,42.60
2018-07-02T03:50:21.957Z,42.70
2018-07-02T03:52:51.009Z,41.70
2018-07-02T03:55:20.015Z,42.00
2018-07-02T03:57:49.101Z,41.90
2018-07-02T04:00:18.113Z,43.40
2018-07-02T04:02:47.133Z,42.60
2018-07-02T04:05:16.156Z,42.70
2018-07-02T04:07:45.184Z,42.50
2018-07-02T04:12:42.881Z,43.40
2018-07-02T04:15:11.881Z,42.10
2018-07-02T04:17:40.933Z,41.50
2018-07-02T04:20:09.947Z,41.90
2018-07-02T04:22:39.039Z,42.60
2018-07-02T04:25:08.050Z,41.20
2018-07-02T04:27:37.085Z,41.10
2018-07-02T04:30:06.145Z,41.20
2018-07-02T04:32:35.150Z,42.10
2018-07-02T04:35:04.215Z,41.40
2018-07-02T04:37:33.195Z,41.70
2018-07-02T04:40:02.225Z,42.30
2018-07-02T04:42:31.244Z,42.30
2018-07-02T04:45:00.278Z,43.10
2018-07-02T04:49:57.913Z,42.10
2018-07-02T04:52:27.094Z,42.60
2018-07-02T04:54:56.146Z,43.30
2018-07-02T04:57:25.284Z,42.60
2018-07-02T04:59:54.309Z,43.00
2018-07-02T05:02:23.312Z,42.90
2018-07-02T05:04:52.388Z,42.40
2018-07-02T05:07:21.419Z,43.50
2018-07-02T05:09:50.747Z,43.90
2018-07-02T05:12:20.200Z,44.00
2018-07-02T05:14:49.228Z,43.80
2018-07-02T05:17:18.251Z,44.20
2018-07-02T05:19:47.260Z,43.20
2018-07-02T05:22:16.260Z,42.50
2018-07-02T05:24:45.538Z,40.60
2018-07-02T05:27:14.736Z,40.30
2018-07-02T05:29:43.764Z,38.70
2018-07-02T05:32:12.804Z,37.00
2018-07-02T05:34:41.884Z,36.70
2018-07-02T05:39:39.472Z,35.50
2018-07-02T05:42:08.867Z,35.10
2018-07-02T05:44:38.078Z,35.90
2018-07-02T05:47:07.056Z,34.60
2018-07-02T05:52:04.796Z,35.30
2018-07-02T05:54:33.823Z,35.50
2018-07-02T05:57:02.801Z,35.80
2018-07-02T05:59:31.778Z,35.90
2018-07-02T06:02:00.848Z,36.10
2018-07-02T06:04:29.903Z,36.40
2018-07-02T06:06:58.859Z,36.90
2018-07-02T06:11:56.502Z,36.80
2018-07-02T06:14:25.592Z,37.90
2018-07-02T06:16:54.626Z,38.30
2018-07-02T06:19:23.669Z,38.80
2018-07-02T06:21:52.647Z,39.40
2018-07-02T06:24:21.680Z,39.20
2018-07-02T06:26:50.688Z,39.50
2018-07-02T06:29:19.654Z,39.70
2018-07-02T06:31:48.665Z,40.10
2018-07-02T06:34:17.648Z,40.20
2018-07-02T06:36:46.709Z,39.40
2018-07-02T06:39:15.709Z,40.20
2018-07-02T06:41:44.819Z,40.30
2018-07-02T06:44:13.937Z,40.00
2018-07-02T06:46:42.949Z,39.80
2018-07-02T06:49:11.915Z,40.60
2018-07-02T06:51:40.922Z,40.10
2018-07-02T06:54:09.945Z,40.80
2018-07-02T06:56:38.923Z,40.80
2018-07-02T06:59:07.885Z,40.90
2018-07-02T07:01:36.873Z,40.50
2018-07-02T07:06:34.697Z,40.50
2018-07-02T07:09:04.683Z,40.80
2018-07-02T07:11:33.664Z,40.90
2018-07-02T07:14:02.672Z,40.60
2018-07-02T07:16:32.341Z,40.20
2018-07-02T07:19:01.341Z,40.40
2018-07-02T07:21:30.377Z,40.20
2018-07-02T07:23:59.445Z,40.50
2018-07-02T07:26:28.501Z,40.80
2018-07-02T07:28:57.501Z,41.10
2018-07-02T07:31:26.473Z,41.10
2018-07-02T07:33:55.473Z,41.20
2018-07-02T07:36:24.564Z,40.80
2018-07-02T07:38:53.627Z,40.80
2018-07-02T07:41:22.585Z,40.80
2018-07-02T07:46:20.481Z,41.30
2018-07-02T07:51:18.087Z,41.90
2018-07-02T07:53:47.033Z,42.10
2018-07-02T07:56:16.053Z,41.90
2018-07-02T07:58:45.059Z,41.70
2018-07-02T08:01:14.025Z,41.60
2018-07-02T08:03:43.086Z,41.50
2018-07-02T08:06:12.117Z,41.60
2018-07-02T08:08:41.140Z,41.70
2018-07-02T08:11:10.231Z,41.50
2018-07-02T08:13:39.261Z,41.30
2018-07-02T08:16:08.276Z,41.30
2018-07-02T08:18:37.393Z,41.50
2018-07-02T08:21:06.344Z,41.60
2018-07-02T08:23:35.332Z,41.60
2018-07-02T08:26:04.333Z,41.20
2018-07-02T08:28:33.372Z,41.50
2018-07-02T08:31:02.316Z,41.60
2018-07-02T08:33:31.328Z,41.60
2018-07-02T08:36:00.332Z,41.30
2018-07-02T08:38:29.322Z,41.10
2018-07-02T08:40:58.341Z,41.00
2018-07-02T08:43:27.310Z,40.80
2018-07-02T08:45:56.316Z,41.00
2018-07-02T08:48:25.296Z,41.00
2018-07-02T08:50:54.508Z,41.00
2018-07-02T08:55:52.154Z,41.40
2018-07-02T08:58:21.265Z,41.20
2018-07-02T09:00:50.198Z,40.90
2018-07-02T09:03:19.167Z,40.70
2018-07-02T09:05:48.265Z,40.80
2018-07-02T09:08:17.242Z,40.50
2018-07-02T09:10:46.205Z,40.60
2018-07-02T09:13:15.265Z,40.40
2018-07-02T09:15:44.394Z,40.40
2018-07-02T09:18:13.374Z,40.10
2018-07-02T09:20:42.357Z,40.20
2018-07-02T09:23:11.341Z,40.10
2018-07-02T09:25:40.366Z,39.30
2018-07-02T09:28:09.397Z,39.50
2018-07-02T09:30:38.482Z,38.70
2018-07-02T09:33:07.522Z,38.90
2018-07-02T09:35:36.597Z,38.10
2018-07-02T09:38:05.919Z,38.50
2018-07-02T09:40:34.877Z,37.70
2018-07-02T09:43:03.861Z,37.70
2018-07-02T09:45:33.627Z,37.60
2018-07-02T09:48:02.685Z,37.30
2018-07-02T09:50:31.673Z,36.50
2018-07-02T09:53:00.639Z,37.00
2018-07-02T09:55:29.653Z,37.20
2018-07-02T09:57:58.752Z,36.70
2018-07-02T10:00:27.725Z,37.20
2018-07-02T10:02:56.767Z,36.50
2018-07-02T10:05:25.865Z,36.00
2018-07-02T10:07:54.855Z,36.70
2018-07-02T10:10:23.925Z,36.60
2018-07-02T10:12:52.936Z,36.40
2018-07-02T10:15:21.912Z,35.90
2018-07-02T10:17:50.944Z,34.80
2018-07-02T10:20:20.580Z,35.20
2018-07-02T10:22:49.566Z,35.70
2018-07-02T10:25:18.574Z,35.00
2018-07-02T10:27:47.568Z,35.00
2018-07-02T10:30:16.570Z,35.00
2018-07-02T10:32:45.516Z,35.60
2018-07-02T10:35:14.582Z,35.30
2018-07-02T10:37:43.706Z,34.60
2018-07-02T10:40:12.795Z,33.70
2018-07-02T10:42:41.757Z,32.50
2018-07-02T10:45:10.734Z,33.60
2018-07-02T10:47:39.704Z,34.20
2018-07-02T10:50:08.905Z,33.30
2018-07-02T10:52:37.968Z,33.50
2018-07-02T10:55:06.929Z,33.70
2018-07-02T10:57:35.954Z,33.30
2018-07-02T11:00:05.354Z,33.40
2018-07-02T11:02:34.451Z,33.40
2018-07-02T11:05:03.457Z,33.80
2018-07-02T11:07:32.467Z,33.80
2018-07-02T11:10:01.639Z,33.60
2018-07-02T11:12:31.038Z,32.10
2018-07-02T11:15:00.541Z,32.90
2018-07-02T11:17:29.753Z,33.60
2018-07-02T11:19:58.769Z,33.20
2018-07-02T11:22:27.814Z,33.30
2018-07-02T11:24:56.824Z,34.10
2018-07-02T11:27:25.917Z,33.80
2018-07-02T11:29:54.985Z,33.90
2018-07-02T11:32:23.981Z,32.90
2018-07-02T11:37:21.739Z,33.10
2018-07-02T11:39:50.704Z,33.00
2018-07-02T11:42:19.775Z,32.60
2018-07-02T11:44:48.741Z,32.60
2018-07-02T11:47:17.739Z,32.10
2018-07-02T11:52:15.388Z,32.00
2018-07-02T11:54:44.384Z,32.30
2018-07-02T11:57:13.422Z,32.70
2018-07-02T11:59:42.451Z,30.90
2018-07-02T12:02:11.493Z,31.20
2018-07-02T12:04:40.472Z,31.40
2018-07-02T12:07:09.492Z,31.70
2018-07-02T12:09:38.603Z,31.70
2018-07-02T12:12:07.593Z,32.70
2018-07-02T12:14:36.654Z,32.30
2018-07-02T12:17:05.637Z,32.10
2018-07-02T12:19:34.758Z,32.40
2018-07-02T12:22:03.785Z,31.90
2018-07-02T12:24:32.824Z,32.20
2018-07-02T12:27:01.849Z,31.70
2018-07-02T12:29:30.884Z,33.20
2018-07-02T12:31:59.948Z,32.50
2018-07-02T12:34:28.951Z,31.60
2018-07-02T12:36:57.948Z,31.40
2018-07-02T12:39:26.970Z,31.60
2018-07-02T12:41:55.921Z,31.90
2018-07-02T12:44:24.959Z,31.80
2018-07-02T12:46:54.197Z,31.70
2018-07-02T12:49:23.198Z,30.70
2018-07-02T12:51:52.154Z,31.20
2018-07-02T12:54:21.242Z,31.70
2018-07-02T12:56:50.294Z,30.00
2018-07-02T12:59:19.400Z,30.20
2018-07-02T13:01:48.445Z,30.40
2018-07-02T13:04:17.526Z,30.80
2018-07-02T13:06:46.522Z,29.70
2018-07-02T13:09:15.548Z,31.00
2018-07-02T13:11:44.589Z,31.10
2018-07-02T13:14:13.546Z,31.60
2018-07-02T13:16:42.532Z,31.10
2018-07-02T13:19:11.544Z,29.90
2018-07-02T13:21:40.514Z,28.90
2018-07-02T13:24:09.486Z,29.30
2018-07-02T13:26:38.628Z,29.90
2018-07-02T13:29:07.671Z,29.40
2018-07-02T13:31:36.683Z,30.10
2018-07-02T13:34:05.718Z,29.90
2018-07-02T13:36:34.711Z,28.80
2018-07-02T13:39:04.769Z,28.60
2018-07-02T13:41:33.804Z,29.20
2018-07-02T13:44:03.098Z,29.40
2018-07-02T13:46:32.189Z,27.30
2018-07-02T13:49:01.231Z,27.60
2018-07-02T13:51:30.191Z,28.20
2018-07-02T13:53:59.186Z,28.20
2018-07-02T13:56:28.554Z,29.00
2018-07-02T13:58:57.546Z,28.70
2018-07-02T14:01:26.537Z,28.50
2018-07-02T14:03:55.597Z,28.60
2018-07-02T14:06:24.587Z,28.70
2018-07-02T14:08:53.633Z,28.90
2018-07-02T14:11:22.685Z,28.60
2018-07-02T14:13:51.657Z,29.00
2018-07-02T14:16:20.655Z,28.40
2018-07-02T14:18:49.677Z,27.90
2018-07-02T14:21:18.637Z,27.30
2018-07-02T14:23:48.131Z,28.10
2018-07-02T14:26:17.224Z,27.50
2018-07-02T14:28:46.565Z,27.40
2018-07-02T14:31:15.569Z,27.00
2018-07-02T14:33:44.817Z,27.60
2018-07-02T14:36:13.833Z,28.00
2018-07-02T14:38:42.881Z,28.50
2018-07-02T14:41:12.003Z,28.20
2018-07-02T14:43:40.994Z,28.40
2018-07-02T14:46:09.948Z,27.90
2018-07-02T14:48:38.913Z,27.80
2018-07-02T14:51:07.903Z,27.50
2018-07-02T14:53:36.891Z,27.20
2018-07-02T14:56:06.093Z,26.40
2018-07-02T14:58:35.059Z,27.30
2018-07-02T15:01:04.150Z,27.20
2018-07-02T15:03:33.230Z,27.10
2018-07-02T15:06:02.171Z,27.70
2018-07-02T15:08:31.182Z,28.40
2018-07-02T15:11:00.160Z,28.70
2018-07-02T15:13:29.222Z,28.10
2018-07-02T15:15:58.234Z,28.00
2018-07-02T15:18:27.212Z,27.70
2018-07-02T15:20:56.230Z,27.00
2018-07-02T15:23:25.199Z,26.80
2018-07-02T15:25:54.189Z,28.10
2018-07-02T15:28:23.162Z,28.50
2018-07-02T15:30:52.280Z,27.80
2018-07-02T15:33:21.299Z,27.90
2018-07-02T15:35:50.279Z,28.60
2018-07-02T15:38:19.289Z,28.80
2018-07-02T15:40:48.458Z,28.70
2018-07-02T15:43:17.453Z,28.60
2018-07-02T15:45:46.466Z,27.50
2018-07-02T15:48:15.471Z,27.40
2018-07-02T15:50:44.486Z,26.60
2018-07-02T15:53:13.566Z,26.80
2018-07-02T15:55:42.524Z,26.70
2018-07-02T15:58:11.828Z,27.30
2018-07-02T16:00:40.834Z,27.50
2018-07-02T16:03:09.868Z,27.30
2018-07-02T16:05:38.841Z,28.20
2018-07-02T16:08:08.242Z,27.00
2018-07-02T16:10:37.070Z,27.90
2018-07-02T16:13:06.395Z,27.80
2018-07-02T16:15:35.568Z,27.90
2018-07-02T16:18:04.485Z,27.20
2018-07-02T16:20:33.676Z,27.60
2018-07-02T16:23:02.662Z,27.60
2018-07-02T16:25:31.667Z,27.00
2018-07-02T16:28:00.695Z,27.40
2018-07-02T16:30:29.861Z,26.80
2018-07-02T16:32:58.847Z,27.30
2018-07-02T16:35:27.813Z,27.00
2018-07-02T16:37:56.817Z,27.50
2018-07-02T16:40:26.285Z,25.80
2018-07-02T16:42:55.293Z,26.90
2018-07-02T16:45:24.290Z,27.80
2018-07-02T16:47:53.367Z,27.70
2018-07-02T16:50:22.389Z,26.60
2018-07-02T16:52:51.399Z,27.20
2018-07-02T16:55:20.403Z,26.40
2018-07-02T16:57:49.402Z,26.90
2018-07-02T17:00:18.619Z,28.00
2018-07-02T17:02:47.693Z,27.70
2018-07-02T17:05:16.801Z,27.80
2018-07-02T17:07:45.780Z,27.00
2018-07-02T17:10:14.754Z,27.10
2018-07-02T17:15:12.470Z,26.90
2018-07-02T17:17:41.534Z,26.40
2018-07-02T17:20:10.573Z,26.90
2018-07-02T17:22:39.764Z,26.80
2018-07-02T17:25:08.859Z,26.60
2018-07-02T17:27:37.877Z,27.10
2018-07-02T17:30:08.297Z,27.20
2018-07-02T17:32:37.304Z,26.70
2018-07-02T17:35:06.442Z,26.80
2018-07-02T17:37:35.841Z,26.70
2018-07-02T17:40:05.719Z,27.20
2018-07-02T17:42:35.053Z,26.80
2018-07-02T17:45:04.213Z,26.10
2018-07-02T17:47:33.365Z,26.80
2018-07-02T17:50:02.363Z,27.00
2018-07-02T17:52:31.403Z,27.10
2018-07-02T17:55:00.364Z,27.20
2018-07-02T17:57:29.378Z,27.20
2018-07-02T17:59:58.353Z,26.80
2018-07-02T18:02:27.435Z,26.90
2018-07-02T18:04:56.405Z,26.00
2018-07-02T18:07:25.385Z,26.60
2018-07-02T18:09:54.403Z,26.20
2018-07-02T18:12:23.413Z,27.00
2018-07-02T18:14:52.457Z,27.30
2018-07-02T18:17:21.962Z,26.90
2018-07-02T18:19:50.905Z,26.50
2018-07-02T18:22:19.916Z,26.90
2018-07-02T18:24:48.944Z,26.80
2018-07-02T18:27:17.929Z,27.40
2018-07-02T18:29:46.958Z,26.80
2018-07-02T18:34:45.164Z,26.70
2018-07-02T18:39:42.834Z,27.50
2018-07-02T18:42:11.844Z,27.00
2018-07-02T18:44:40.922Z,27.90
2018-07-02T18:47:09.954Z,27.20
2018-07-02T18:49:38.924Z,27.50
2018-07-02T18:52:08.010Z,27.10
2018-07-02T18:54:37.106Z,27.30
2018-07-02T18:57:06.470Z,27.50
2018-07-02T18:59:35.506Z,27.60
2018-07-02T19:02:04.594Z,27.30
2018-07-02T19:04:33.588Z,27.50
2018-07-02T19:07:02.655Z,27.50
2018-07-02T19:09:31.660Z,27.60
2018-07-02T19:12:00.720Z,27.50
2018-07-02T19:14:29.827Z,27.40
2018-07-02T19:16:59.678Z,27.50
2018-07-02T19:19:29.494Z,27.60
2018-07-02T19:21:59.410Z,27.80
2018-07-02T19:24:28.389Z,27.90
2018-07-02T19:26:57.374Z,28.00
2018-07-02T19:31:55.384Z,28.30
2018-07-02T19:34:24.397Z,28.50
2018-07-02T19:36:53.385Z,28.50
2018-07-02T19:39:22.405Z,28.60
2018-07-02T19:41:51.452Z,28.80
2018-07-02T19:44:21.448Z,28.70
2018-07-02T19:46:50.426Z,29.00
2018-07-02T19:49:19.448Z,28.80
2018-07-02T19:51:48.414Z,28.90
2018-07-02T19:54:17.561Z,28.80
2018-07-02T19:56:46.703Z,29.00
2018-07-02T19:59:15.757Z,29.10
2018-07-02T20:01:46.555Z,29.10
2018-07-02T20:04:15.644Z,29.30
2018-07-02T20:06:44.704Z,29.00
2018-07-02T20:09:13.727Z,29.20
2018-07-02T20:11:42.732Z,29.40
2018-07-02T20:14:11.729Z,29.30
2018-07-02T20:16:40.758Z,29.70
2018-07-02T20:19:09.878Z,29.60
2018-07-02T20:21:39.039Z,30.00
2018-07-02T20:24:08.079Z,29.90
2018-07-02T20:26:37.127Z,29.50
2018-07-02T20:29:06.172Z,30.00
2018-07-02T20:31:35.358Z,30.00
2018-07-02T20:34:04.390Z,30.10
2018-07-02T20:39:02.471Z,30.00
2018-07-02T20:41:31.457Z,30.60
2018-07-02T20:44:00.490Z,30.80
2018-07-02T20:46:29.448Z,30.60
2018-07-02T20:48:58.415Z,30.30
2018-07-02T20:51:27.573Z,30.90
2018-07-02T20:53:56.606Z,31.30
2018-07-02T20:56:25.633Z,31.10
2018-07-02T20:58:54.668Z,31.50
2018-07-02T21:01:23.721Z,31.70
2018-07-02T21:03:52.725Z,31.80
2018-07-02T21:06:21.930Z,32.30
2018-07-02T21:08:51.041Z,32.10
2018-07-02T21:11:20.063Z,32.20
2018-07-02T21:13:49.174Z,31.70
2018-07-02T21:16:18.181Z,31.40
2018-07-02T21:18:47.147Z,32.10
2018-07-02T21:21:16.141Z,33.10
2018-07-02T21:23:45.199Z,32.20
2018-07-02T21:26:14.277Z,32.90
2018-07-02T21:28:43.605Z,32.40
2018-07-02T21:31:12.588Z,33.00
2018-07-02T21:33:41.629Z,33.10
2018-07-02T21:36:10.601Z,33.50
2018-07-02T21:38:39.777Z,33.60
2018-07-02T21:41:08.761Z,32.50
2018-07-02T21:43:37.785Z,32.60
2018-07-02T21:46:06.813Z,33.40
2018-07-02T21:48:35.851Z,34.00
2018-07-02T21:51:04.843Z,33.90
2018-07-02T21:53:33.856Z,34.20
2018-07-02T21:56:02.893Z,33.70
2018-07-02T21:58:31.894Z,33.30
2018-07-02T22:01:00.889Z,33.10
2018-07-02T22:03:29.881Z,34.50
2018-07-02T22:05:58.903Z,34.90
2018-07-02T22:08:27.892Z,33.70
2018-07-02T22:10:56.898Z,34.50
2018-07-02T22:13:25.853Z,34.80
2018-07-02T22:15:54.864Z,34.30
2018-07-02T22:18:23.886Z,34.30
2018-07-02T22:20:52.816Z,34.70
2018-07-02T22:23:21.788Z,34.70
2018-07-02T22:25:50.798Z,35.80
2018-07-02T22:28:19.758Z,34.50
2018-07-02T22:30:48.728Z,35.30
2018-07-02T22:33:17.696Z,34.90
2018-07-02T22:35:46.712Z,35.70
2018-07-02T22:38:15.707Z,36.00
2018-07-02T22:40:44.672Z,35.80
2018-07-02T22:43:13.656Z,35.50
2018-07-02T22:45:42.898Z,35.30
2018-07-02T22:48:11.866Z,36.40
2018-07-02T22:50:40.852Z,35.10
2018-07-02T22:55:49.508Z,35.30
2018-07-02T22:58:18.720Z,35.30
2018-07-02T23:00:47.708Z,36.00
2018-07-02T23:03:16.692Z,34.90
2018-07-02T23:08:14.248Z,35.90
2018-07-02T23:10:43.250Z,35.50
2018-07-02T23:13:12.228Z,35.30
2018-07-02T23:15:41.229Z,34.60
2018-07-02T23:18:10.219Z,35.00
2018-07-02T23:20:39.336Z,35.30
2018-07-02T23:23:08.302Z,35.20
2018-07-02T23:25:37.328Z,36.20
2018-07-02T23:28:06.337Z,34.30
2018-07-02T23:30:35.306Z,34.70
2018-07-02T23:33:04.256Z,35.00
2018-07-02T23:35:33.277Z,35.60
2018-07-02T23:38:02.263Z,36.40
2018-07-02T23:40:31.256Z,36.10
2018-07-02T23:45:28.876Z,35.90
2018-07-02T23:47:57.883Z,34.80
2018-07-02T23:50:26.914Z,35.60
2018-07-02T23:52:55.873Z,34.80
2018-07-02T23:55:24.878Z,36.20
2018-07-02T23:57:53.862Z,35.80
